createdAt,value
2022-08-29T00:00:42.807Z,83.48
2022-08-29T00:05:42.745Z,83.17
2022-08-29T00:11:53.494Z,83.27
2022-08-29T00:16:53.607Z,83.31
2022-08-29T00:21:53.392Z,84.17
2022-08-29T00:26:53.330Z,84.27
2022-08-29T00:31:53.339Z,84.37
2022-08-29T00:36:53.221Z,84.92
2022-08-29T00:41:53.168Z,85.22
2022-08-29T00:46:53.120Z,85.13
2022-08-29T00:51:53.127Z,85.33
2022-08-29T00:56:53.134Z,86.08
2022-08-29T01:01:53.107Z,85.98
2022-08-29T01:06:53.990Z,86.63
2022-08-29T01:11:52.839Z,86.43
2022-08-29T01:16:52.975Z,87.35
2022-08-29T01:21:52.740Z,87.38
2022-08-29T01:26:52.676Z,88.00
2022-08-29T01:31:57.137Z,87.94
2022-08-29T01:36:53.570Z,88.24
2022-08-29T01:41:52.679Z,88.65
2022-08-29T01:46:53.586Z,88.76
2022-08-29T01:51:52.504Z,88.55
2022-08-29T01:56:52.353Z,88.59
2022-08-29T02:01:52.488Z,89.31
2022-08-29T02:06:52.256Z,89.61
2022-08-29T02:11:52.206Z,89.61
2022-08-29T02:16:52.215Z,89.82
2022-08-29T02:21:52.143Z,89.65
2022-08-29T02:26:52.193Z,90.27
2022-08-29T02:31:52.002Z,90.47
2022-08-29T02:36:52.063Z,90.47
2022-08-29T02:41:51.860Z,90.52
2022-08-29T02:46:51.920Z,91.03
2022-08-29T02:51:51.749Z,90.82
2022-08-29T02:56:51.703Z,91.13
2022-08-29T03:01:51.845Z,91.13
2022-08-29T03:06:51.597Z,91.13
2022-08-29T03:11:51.651Z,91.03
2022-08-29T03:16:51.597Z,91.17
2022-08-29T03:21:51.518Z,91.38
2022-08-29T03:26:54.521Z,91.48
2022-08-29T03:31:52.356Z,91.17
2022-08-29T03:36:51.267Z,91.52
2022-08-29T03:41:51.227Z,91.52
2022-08-29T03:46:51.212Z,91.63
2022-08-29T03:51:51.277Z,91.83
2022-08-29T03:56:51.066Z,91.93
2022-08-29T04:01:51.199Z,92.03
2022-08-29T04:06:51.105Z,92.03
2022-08-29T04:11:50.895Z,91.97
2022-08-29T04:16:50.844Z,91.77
2022-08-29T04:21:50.804Z,91.87
2022-08-29T04:26:50.733Z,92.08
2022-08-29T04:31:50.682Z,92.08
2022-08-29T04:36:50.631Z,91.87
2022-08-29T04:41:50.575Z,91.97
2022-08-29T04:46:50.567Z,92.28
2022-08-29T04:51:50.538Z,92.08
2022-08-29T04:56:50.388Z,92.28
2022-08-29T05:01:50.433Z,92.38
2022-08-29T05:06:50.298Z,92.28
2022-08-29T05:11:50.285Z,92.28
2022-08-29T05:16:50.244Z,92.14
2022-08-29T05:21:53.642Z,92.03
2022-08-29T05:26:50.065Z,91.69
2022-08-29T05:31:50.034Z,91.69
2022-08-29T05:36:49.976Z,91.33
2022-08-29T05:41:49.925Z,90.62
2022-08-29T05:46:49.865Z,90.41
2022-08-29T05:51:49.814Z,89.97
2022-08-29T05:56:49.780Z,89.20
2022-08-29T06:01:49.700Z,88.85
2022-08-29T06:06:49.631Z,87.94
2022-08-29T06:11:58.911Z,88.10
2022-08-29T06:16:49.643Z,87.65
2022-08-29T06:21:49.480Z,86.69
2022-08-29T06:26:49.418Z,85.19
2022-08-29T06:31:49.373Z,84.43
2022-08-29T06:36:49.499Z,83.23
2022-08-29T06:41:49.248Z,81.84
2022-08-29T06:46:49.279Z,81.29
2022-08-29T06:51:49.210Z,81.56
2022-08-29T06:56:49.148Z,80.50
2022-08-29T07:01:49.218Z,80.26
2022-08-29T07:06:49.014Z,79.92
2022-08-29T07:11:48.944Z,78.66
2022-08-29T07:16:48.867Z,78.02
2022-08-29T07:21:48.821Z,76.16
2022-08-29T07:26:48.901Z,75.62
2022-08-29T07:31:48.848Z,75.85
2022-08-29T07:36:48.675Z,73.69
2022-08-29T07:41:48.724Z,72.95
2022-08-29T07:46:48.642Z,71.57
2022-08-29T07:51:48.702Z,69.35
2022-08-29T07:56:48.444Z,68.74
2022-08-29T08:01:48.430Z,68.91
2022-08-29T08:06:48.414Z,66.60
2022-08-29T08:11:48.363Z,65.62
2022-08-29T08:16:49.337Z,64.79
2022-08-29T08:21:49.833Z,65.44
2022-08-29T08:26:48.295Z,64.23
2022-08-29T08:31:48.089Z,62.79
2022-08-29T08:36:48.095Z,62.00
2022-08-29T08:41:47.970Z,59.59
2022-08-29T08:46:47.942Z,59.59
2022-08-29T08:51:47.858Z,59.92
2022-08-29T08:56:47.807Z,58.84
2022-08-29T09:01:47.854Z,60.35
2022-08-29T09:06:47.725Z,59.12
2022-08-29T09:11:47.736Z,59.49
2022-08-29T09:16:47.839Z,58.16
2022-08-29T09:21:47.533Z,58.61
2022-08-29T09:26:47.482Z,57.28
2022-08-29T09:31:47.523Z,56.98
2022-08-29T09:36:47.722Z,55.02
2022-08-29T09:41:47.380Z,53.54
2022-08-29T09:46:47.311Z,54.37
2022-08-29T09:51:47.257Z,52.72
2022-08-29T09:56:47.303Z,54.55
2022-08-29T10:01:47.281Z,53.77
2022-08-29T10:06:52.078Z,52.09
2022-08-29T10:11:49.927Z,51.17
2022-08-29T10:16:48.062Z,50.42
2022-08-29T10:21:46.931Z,53.44
2022-08-29T10:26:46.938Z,48.97
2022-08-29T10:31:47.050Z,49.27
2022-08-29T10:36:46.801Z,49.13
2022-08-29T10:41:50.284Z,47.51
2022-08-29T10:46:46.697Z,48.83
2022-08-29T10:51:46.635Z,48.23
2022-08-29T10:56:46.573Z,49.57
2022-08-29T11:01:46.618Z,50.25
2022-08-29T11:06:49.916Z,50.27
2022-08-29T11:11:46.430Z,47.61
2022-08-29T11:16:46.509Z,47.53
2022-08-29T11:21:46.376Z,47.36
2022-08-29T11:26:46.302Z,47.75
2022-08-29T11:31:46.311Z,47.56
2022-08-29T11:36:46.172Z,49.27
2022-08-29T11:41:46.300Z,49.32
2022-08-29T11:46:46.700Z,49.57
2022-08-29T11:51:46.109Z,47.69
2022-08-29T11:56:45.993Z,44.78
2022-08-29T12:01:45.990Z,45.06
2022-08-29T12:06:45.877Z,45.08
2022-08-29T12:11:52.991Z,45.57
2022-08-29T12:16:45.882Z,46.27
2022-08-29T12:21:45.741Z,45.55
2022-08-29T12:26:45.785Z,45.85
2022-08-29T12:31:56.762Z,44.74
2022-08-29T12:36:52.185Z,44.12
2022-08-29T12:41:46.625Z,44.58
2022-08-29T12:46:45.561Z,44.58
2022-08-29T12:51:45.459Z,44.84
2022-08-29T12:56:46.492Z,44.34
2022-08-29T13:01:45.367Z,43.74
2022-08-29T13:06:45.310Z,43.86
2022-08-29T13:11:45.282Z,43.16
2022-08-29T13:16:45.212Z,43.37
2022-08-29T13:21:45.186Z,44.76
2022-08-29T13:26:50.430Z,43.74
2022-08-29T13:31:46.272Z,42.33
2022-08-29T13:36:45.110Z,42.83
2022-08-29T13:41:45.028Z,42.43
2022-08-29T13:46:45.048Z,42.72
2022-08-29T13:51:45.011Z,42.25
2022-08-29T13:56:44.830Z,42.65
2022-08-29T14:06:45.739Z,42.25
2022-08-29T14:11:44.788Z,41.75
2022-08-29T14:16:44.809Z,42.39
2022-08-29T14:21:44.769Z,42.79
2022-08-29T14:26:44.661Z,41.77
2022-08-29T14:31:44.620Z,42.11
2022-08-29T14:36:49.093Z,43.21
2022-08-29T14:41:44.393Z,43.01
2022-08-29T14:46:44.389Z,43.51
2022-08-29T14:51:44.407Z,43.21
2022-08-29T14:56:48.572Z,44.92
2022-08-29T15:01:52.666Z,44.72
2022-08-29T15:06:45.250Z,44.24
2022-08-29T15:11:44.249Z,44.05
2022-08-29T15:16:44.178Z,45.54
2022-08-29T15:21:44.115Z,45.62
2022-08-29T15:26:44.047Z,44.54
2022-08-29T15:31:43.903Z,44.94
2022-08-29T15:36:43.870Z,44.74
2022-08-29T15:41:43.784Z,43.67
2022-08-29T15:46:50.787Z,44.96
2022-08-29T15:51:44.717Z,45.06
2022-08-29T15:56:43.634Z,46.06
2022-08-29T16:01:43.731Z,45.76
2022-08-29T16:06:43.637Z,44.96
2022-08-29T16:11:43.485Z,44.99
2022-08-29T16:16:43.403Z,44.37
2022-08-29T16:21:44.452Z,44.07
2022-08-29T16:26:45.748Z,44.19
2022-08-29T16:31:43.257Z,44.99
2022-08-29T16:36:43.168Z,44.89
2022-08-29T16:41:43.194Z,45.18
2022-08-29T16:46:43.151Z,45.10
2022-08-29T16:51:43.074Z,46.31
2022-08-29T16:56:43.005Z,45.10
2022-08-29T17:01:43.043Z,45.21
2022-08-29T17:06:42.875Z,46.41
2022-08-29T17:11:42.816Z,47.90
2022-08-29T17:16:42.768Z,47.00
2022-08-29T17:21:46.087Z,46.13
2022-08-29T17:26:42.697Z,47.72
2022-08-29T17:31:42.697Z,49.44
2022-08-29T17:36:42.526Z,48.77
2022-08-29T17:41:44.495Z,47.87
2022-08-29T17:46:42.429Z,47.89
2022-08-29T17:51:42.381Z,48.39
2022-08-29T17:56:44.535Z,49.19
2022-08-29T18:01:42.342Z,49.62
2022-08-29T18:06:42.198Z,49.24
2022-08-29T18:11:42.212Z,50.57
2022-08-29T18:16:51.056Z,51.77
2022-08-29T18:21:43.293Z,52.92
2022-08-29T18:26:42.035Z,54.75
2022-08-29T18:31:42.066Z,55.58
2022-08-29T18:36:41.914Z,56.48
2022-08-29T18:41:41.904Z,56.91
2022-08-29T18:46:41.865Z,57.24
2022-08-29T18:51:42.848Z,58.27
2022-08-29T18:56:41.756Z,58.40
2022-08-29T19:01:41.811Z,59.10
2022-08-29T19:06:41.617Z,59.63
2022-08-29T19:11:41.606Z,60.33
2022-08-29T19:16:41.547Z,60.16
2022-08-29T19:21:41.531Z,60.67
2022-08-29T19:26:41.477Z,61.30
2022-08-29T19:31:41.520Z,61.33
2022-08-29T19:36:41.459Z,62.04
2022-08-29T19:41:41.342Z,62.57
2022-08-29T19:46:46.001Z,62.87
2022-08-29T19:51:42.287Z,63.47
2022-08-29T19:56:41.402Z,64.81
2022-08-29T20:01:46.097Z,65.12
2022-08-29T20:06:41.016Z,65.75
2022-08-29T20:11:43.667Z,65.85
2022-08-29T20:16:40.991Z,66.19
2022-08-29T20:21:40.894Z,67.30
2022-08-29T20:26:40.748Z,67.40
2022-08-29T20:31:40.824Z,67.63
2022-08-29T20:36:40.639Z,67.83
2022-08-29T20:41:40.595Z,68.33
2022-08-29T20:46:40.773Z,68.84
2022-08-29T20:51:40.511Z,69.04
2022-08-29T20:56:40.431Z,69.45
2022-08-29T21:01:40.512Z,69.58
2022-08-29T21:06:40.311Z,69.68
2022-08-29T21:11:41.397Z,70.59
2022-08-29T21:16:40.353Z,70.69
2022-08-29T21:21:40.222Z,70.73
2022-08-29T21:26:40.081Z,70.83
2022-08-29T21:31:40.108Z,71.33
2022-08-29T21:36:39.976Z,71.94
2022-08-29T21:41:39.960Z,72.08
2022-08-29T21:46:39.982Z,72.68
2022-08-29T21:51:39.891Z,73.39
2022-08-29T21:56:39.823Z,73.25
2022-08-29T22:01:39.751Z,73.59
2022-08-29T22:06:39.703Z,73.19
2022-08-29T22:11:39.617Z,73.28
2022-08-29T22:16:39.550Z,74.03
2022-08-29T22:21:39.520Z,74.03
2022-08-29T22:26:39.440Z,74.63
2022-08-29T22:31:39.415Z,74.74
2022-08-29T22:36:39.295Z,74.33
2022-08-29T22:41:39.714Z,74.63
2022-08-29T22:46:39.380Z,74.54
2022-08-29T22:51:39.259Z,74.74
2022-08-29T22:56:40.144Z,74.94
2022-08-29T23:01:39.102Z,75.34
2022-08-29T23:06:39.035Z,75.24
2022-08-29T23:11:38.948Z,75.34
2022-08-29T23:16:38.861Z,75.24
2022-08-29T23:21:40.112Z,75.99
2022-08-29T23:26:38.785Z,75.79
2022-08-29T23:31:38.891Z,75.99
2022-08-29T23:36:38.713Z,76.29
2022-08-29T23:41:38.652Z,76.83
2022-08-29T23:46:38.740Z,77.14
2022-08-29T23:51:38.514Z,77.61
2022-08-29T23:56:38.469Z,77.20
